KAVP

Wilkes-Barre / Scranton International Airport

Wilkes-Barre/Scranton, Pennsylvania, USA
KAVP 182322Z 1900/1924 33007KT P6SM OVC025 FM191300 07005KT P6SM SCT020 OVC090 FM192000 11005KT 1 1/2SM -SN OVC018 FM192300 09007KT 1/2SM SN OVC007
Issued Valid From Valid To
Jan-18 @ 23:22 UTC
(3 hours ago)
Jan-19 @ 00:00 UTC
(2 hours ago)
Jan-20 @ 00:00 UTC
(in 22 hours)
Jan-19 @ 00:00 to Jan-19 @ 13:00
KAVP 182322Z 1900/1924 33007KT P6SM OVC025
Wind Visibility Clouds
330° at 7 knots Greater than 6 miles
  • Overcast at 2,500' AGL
From Jan-19 @ 13:00 to Jan-19 @ 20:00
FM191300 07005KT P6SM SCT020 OVC090
Wind Visibility Clouds
70° at 5 knots Greater than 6 miles
  • Scattered at 2,000' AGL
  • Overcast at 9,000' AGL
From Jan-19 @ 20:00 to Jan-19 @ 23:00
FM192000 11005KT 1 1/2SM -SN OVC018
Wind Visibility Clouds Conditions
110° at 5 knots 1 1/2 miles
  • Overcast at 1,800' AGL
  • Light Snow
From Jan-19 @ 23:00 to Jan-20 @ 00:00
FM192300 09007KT 1/2SM SN OVC007
Wind Visibility Clouds Conditions
90° at 7 knots 1/2 miles
  • Overcast at 700' AGL
  • Snow
KAVP 182322Z 1900/1924 33007KT P6SM OVC025 FM191300 07005KT P6SM SCT020 OVC090 FM192000 11005KT 1 1/2SM -SN OVC018 FM192300 09007KT 1/2SM SN OVC007
Issued Jan-18 @ 23:22 UTC
(3 hours ago)
Valid From Jan-19 @ 00:00 UTC
(2 hours ago)
Valid To Jan-20 @ 00:00 UTC
(in 22 hours)
Jan-19 @ 00:00 - Jan-19 @ 13:00
Wind Visibility
330° at 7 knots Greater than 6 miles
Clouds
  • Overcast at 2,500' AGL
From Jan-19 @ 13:00 - Jan-19 @ 20:00
Wind Visibility
70° at 5 knots Greater than 6 miles
Clouds
  • Scattered at 2,000' AGL
  • Overcast at 9,000' AGL
From Jan-19 @ 20:00 - Jan-19 @ 23:00
Wind Visibility
110° at 5 knots 1 1/2 miles
Clouds
  • Overcast at 1,800' AGL
Conditions
  • Light Snow
From Jan-19 @ 23:00 - Jan-20 @ 00:00
Wind Visibility
90° at 7 knots 1/2 miles
Clouds
  • Overcast at 700' AGL
Conditions
  • Snow